sensor_id;sensor_type;location;lat;lon;timestamp;pressure;altitude;pressure_sealevel;temperature;humidity
79000;BME280;68406;53.914;27.416;2023-06-22T00:02:22;988.8;;;21.7;44.8
79000;BME280;68406;53.914;27.416;2023-06-22T00:07:34;988.8;;;21.7;45
79000;BME280;68406;53.914;27.416;2023-06-22T00:12:00;988.8;;;21.7;45.4
79000;BME280;68406;53.914;27.416;2023-06-22T00:17:28;988.7;;;21.7;45.6
79000;BME280;68406;53.914;27.416;2023-06-22T00:22:06;988.7;;;21.7;45.9
79000;BME280;68406;53.914;27.416;2023-06-22T00:26:58;988.8;;;21.7;46.1
79000;BME280;68406;53.914;27.416;2023-06-22T00:31:58;988.8;;;21.5;46.6
79000;BME280;68406;53.914;27.416;2023-06-22T00:37:32;988.8;;;21.5;46.9
79000;BME280;68406;53.914;27.416;2023-06-22T00:42:14;988.8;;;21.4;47.3
79000;BME280;68406;53.914;27.416;2023-06-22T00:47:28;988.8;;;21.4;47.5
79000;BME280;68406;53.914;27.416;2023-06-22T00:52:42;988.8;;;21.4;47.9
79000;BME280;68406;53.914;27.416;2023-06-22T00:57:34;988.8;;;21.3;48.1
79000;BME280;68406;53.914;27.416;2023-06-22T01:01:58;988.8;;;21.3;48.3
79000;BME280;68406;53.914;27.416;2023-06-22T01:07:35;988.8;;;21.1;48.6
79000;BME280;68406;53.914;27.416;2023-06-22T01:12:43;988.8;;;21.1;48.9
79000;BME280;68406;53.914;27.416;2023-06-22T01:17:40;988.8;;;21;49.2
79000;BME280;68406;53.914;27.416;2023-06-22T01:22:49;988.8;;;20.9;49.6
79000;BME280;68406;53.914;27.416;2023-06-22T01:27:47;988.9;;;20.9;50.1
79000;BME280;68406;53.914;27.416;2023-06-22T01:32:08;988.9;;;20.8;50.5
79000;BME280;68406;53.914;27.416;2023-06-22T01:37:08;988.9;;;20.7;50.9
79000;BME280;68406;53.914;27.416;2023-06-22T01:42:10;988.9;;;20.7;51.2
79000;BME280;68406;53.914;27.416;2023-06-22T01:47:46;988.9;;;20.8;51.4
79000;BME280;68406;53.914;27.416;2023-06-22T01:52:34;988.8;;;20.8;51.6
79000;BME280;68406;53.914;27.416;2023-06-22T01:57:36;988.8;;;20.8;51.8
79000;BME280;68406;53.914;27.416;2023-06-22T02:02:10;988.8;;;20.8;51.9
79000;BME280;68406;53.914;27.416;2023-06-22T02:06:58;988.7;;;20.9;52
79000;BME280;68406;53.914;27.416;2023-06-22T02:11:58;988.7;;;21;52
79000;BME280;68406;53.914;27.416;2023-06-22T02:17:12;988.7;;;21.1;51.9
79000;BME280;68406;53.914;27.416;2023-06-22T02:22:46;988.6;;;21.2;51.8
79000;BME280;68406;53.914;27.416;2023-06-22T02:27:10;988.6;;;21.3;51.6
79000;BME280;68406;53.914;27.416;2023-06-22T02:32:34;988.6;;;21.4;51.5
79000;BME280;68406;53.914;27.416;2023-06-22T02:37:08;988.6;;;21.4;51.5
79000;BME280;68406;53.914;27.416;2023-06-22T02:41:58;988.6;;;21.5;51.5
79000;BME280;68406;53.914;27.416;2023-06-22T02:47:44;988.6;;;21.5;51.4
79000;BME280;68406;53.914;27.416;2023-06-22T02:52:12;988.6;;;21.6;51.4
79000;BME280;68406;53.914;27.416;2023-06-22T02:57:30;988.6;;;21.7;51.3
79000;BME280;68406;53.914;27.416;2023-06-22T03:02:20;988.6;;;21.8;51
79000;BME280;68406;53.914;27.416;2023-06-22T03:07:46;988.6;;;21.9;50.9
79000;BME280;68406;53.914;27.416;2023-06-22T03:11:58;988.6;;;21.9;50.9
79000;BME280;68406;53.914;27.416;2023-06-22T03:16:58;988.7;;;22;50.8
79000;BME280;68406;53.914;27.416;2023-06-22T03:22:46;988.6;;;22.1;50.7
79000;BME280;68406;53.914;27.416;2023-06-22T03:27:24;988.7;;;22.2;50.6
79000;BME280;68406;53.914;27.416;2023-06-22T03:32:18;988.6;;;22.3;50.5
79000;BME280;68406;53.914;27.416;2023-06-22T03:37:20;988.6;;;22.4;50.1
79000;BME280;68406;53.914;27.416;2023-06-22T03:42:46;988.6;;;22.5;50
79000;BME280;68406;53.914;27.416;2023-06-22T03:46:58;988.7;;;22.5;50
79000;BME280;68406;53.914;27.416;2023-06-22T03:52:08;988.7;;;22.5;50.1
79000;BME280;68406;53.914;27.416;2023-06-22T03:57:44;988.7;;;22.5;50.2
79000;BME280;68406;53.914;27.416;2023-06-22T04:02:20;988.7;;;22.6;50.2
79000;BME280;68406;53.914;27.416;2023-06-22T04:07:08;988.7;;;22.8;49.9
79000;BME280;68406;53.914;27.416;2023-06-22T04:12:20;988.6;;;23;49.7
79000;BME280;68406;53.914;27.416;2023-06-22T04:17:28;988.6;;;23.2;49.3
79000;BME280;68406;53.914;27.416;2023-06-22T04:22:12;988.6;;;23.3;49.2
79000;BME280;68406;53.914;27.416;2023-06-22T04:27:20;988.6;;;23.4;49.3
79000;BME280;68406;53.914;27.416;2023-06-22T04:32:44;988.6;;;23.5;49.2
79000;BME280;68406;53.914;27.416;2023-06-22T04:37:28;988.7;;;23.6;49.3
79000;BME280;68406;53.914;27.416;2023-06-22T04:42:08;988.7;;;23.6;49.4
79000;BME280;68406;53.914;27.416;2023-06-22T04:47:20;988.7;;;23.7;49.7
79000;BME280;68406;53.914;27.416;2023-06-22T04:52:10;988.7;;;23.8;49.9
79000;BME280;68406;53.914;27.416;2023-06-22T04:57:08;988.6;;;24;49.7
79000;BME280;68406;53.914;27.416;2023-06-22T05:02:24;988.6;;;24.2;49.1
79000;BME280;68406;53.914;27.416;2023-06-22T05:07:20;988.5;;;24.4;48.7
79000;BME280;68406;53.914;27.416;2023-06-22T05:12:28;988.5;;;24.6;48.2
79000;BME280;68406;53.914;27.416;2023-06-22T05:17:28;988.5;;;24.7;47.7
79000;BME280;68406;53.914;27.416;2023-06-22T05:21:56;988.5;;;24.8;47.6
79000;BME280;68406;53.914;27.416;2023-06-22T05:27:06;988.5;;;25.1;47.3
79000;BME280;68406;53.914;27.416;2023-06-22T05:31:56;988.4;;;25.3;46.7
79000;BME280;68406;53.914;27.416;2023-06-22T05:37:42;988.4;;;25.4;46.3
79000;BME280;68406;53.914;27.416;2023-06-22T05:42:14;988.4;;;25.6;45.7
79000;BME280;68406;53.914;27.416;2023-06-22T05:47:18;988.4;;;25.9;45.6
79000;BME280;68406;53.914;27.416;2023-06-22T05:52:44;988.4;;;26.1;44.8
79000;BME280;68406;53.914;27.416;2023-06-22T05:57:34;988.4;;;26.3;44.3
79000;BME280;68406;53.914;27.416;2023-06-22T06:02:18;988.4;;;26.6;43.5
79000;BME280;68406;53.914;27.416;2023-06-22T06:07:32;988.4;;;26.8;42.4
79000;BME280;68406;53.914;27.416;2023-06-22T06:12:44;988.4;;;27;41.6
79000;BME280;68406;53.914;27.416;2023-06-22T06:17:45;988.4;;;27.4;40.6
79000;BME280;68406;53.914;27.416;2023-06-22T06:22:44;988.4;;;27.6;40.2
79000;BME280;68406;53.914;27.416;2023-06-22T06:27:44;988.3;;;27.9;39.5
79000;BME280;68406;53.914;27.416;2023-06-22T06:31:56;988.3;;;28.2;38.9
79000;BME280;68406;53.914;27.416;2023-06-22T06:37:20;988.3;;;28.6;38.4
79000;BME280;68406;53.914;27.416;2023-06-22T06:42:34;988.3;;;28.9;37.6
79000;BME280;68406;53.914;27.416;2023-06-22T06:47:44;988.3;;;28.8;37.2
79000;BME280;68406;53.914;27.416;2023-06-22T06:52:30;988.3;;;28.7;36.8
79000;BME280;68406;53.914;27.416;2023-06-22T06:57:32;988.3;;;28.6;36.6
79000;BME280;68406;53.914;27.416;2023-06-22T07:02:42;988.4;;;28.6;36.3
79000;BME280;68406;53.914;27.416;2023-06-22T07:06:56;988.3;;;28.7;36.1
79000;BME280;68406;53.914;27.416;2023-06-22T07:11:56;988.3;;;28.7;36.1
79000;BME280;68406;53.914;27.416;2023-06-22T07:16:56;988.3;;;28.6;36.3
79000;BME280;68406;53.914;27.416;2023-06-22T07:22:41;988.3;;;28.6;36.3
79000;BME280;68406;53.914;27.416;2023-06-22T07:27:30;988.2;;;28.7;36.2
79000;BME280;68406;53.914;27.416;2023-06-22T07:32:42;988.2;;;28.7;35.8
79000;BME280;68406;53.914;27.416;2023-06-22T07:36:56;988.3;;;28.6;35.3
79000;BME280;68406;53.914;27.416;2023-06-22T07:42:16;988.2;;;28.8;35.5
79000;BME280;68406;53.914;27.416;2023-06-22T07:47:28;988.2;;;29;35.5
79000;BME280;68406;53.914;27.416;2023-06-22T07:52:06;988.2;;;29.3;34.9
79000;BME280;68406;53.914;27.416;2023-06-22T07:57:16;988.1;;;29.4;34.5
79000;BME280;68406;53.914;27.416;2023-06-22T08:02:16;988.1;;;29.7;34
79000;BME280;68406;53.914;27.416;2023-06-22T08:07:42;988.1;;;30;33.4
79000;BME280;68406;53.914;27.416;2023-06-22T08:12:08;988.1;;;30.1;32.9
79000;BME280;68406;53.914;27.416;2023-06-22T08:16:58;988.1;;;29.8;33.1
79000;BME280;68406;53.914;27.416;2023-06-22T08:22:42;988.1;;;29.7;33
79000;BME280;68406;53.914;27.416;2023-06-22T08:27:30;988.1;;;29.7;32.6
79000;BME280;68406;53.914;27.416;2023-06-22T08:32:14;988.1;;;29.9;32.2
79000;BME280;68406;53.914;27.416;2023-06-22T08:37:16;988;;;30;31.7
79000;BME280;68406;53.914;27.416;2023-06-22T08:42:12;987.9;;;30.4;31.3
79000;BME280;68406;53.914;27.416;2023-06-22T08:47:08;988;;;30.4;30.7
79000;BME280;68406;53.914;27.416;2023-06-22T08:52:10;988;;;30.7;30.3
79000;BME280;68406;53.914;27.416;2023-06-22T08:57:44;987.9;;;31.1;29.7
79000;BME280;68406;53.914;27.416;2023-06-22T09:02:26;987.9;;;31.4;29.3
79000;BME280;68406;53.914;27.416;2023-06-22T09:07:14;987.9;;;31.4;28.6
79000;BME280;68406;53.914;27.416;2023-06-22T09:12:20;987.9;;;31.5;28.2
79000;BME280;68406;53.914;27.416;2023-06-22T09:17:28;987.9;;;31.5;28.1
79000;BME280;68406;53.914;27.416;2023-06-22T09:21:56;987.8;;;32.1;27.7
79000;BME280;68406;53.914;27.416;2023-06-22T09:27:20;987.8;;;32.4;27.1
79000;BME280;68406;53.914;27.416;2023-06-22T09:32:32;987.7;;;32.4;27.3
79000;BME280;68406;53.914;27.416;2023-06-22T09:37:28;987.7;;;32.5;26.7
79000;BME280;68406;53.914;27.416;2023-06-22T09:42:28;987.6;;;32.9;26.5
79000;BME280;68406;53.914;27.416;2023-06-22T09:47:18;987.8;;;33.1;26.1
79000;BME280;68406;53.914;27.416;2023-06-22T09:51:56;987.7;;;32.6;26.4
79000;BME280;68406;53.914;27.416;2023-06-22T09:57:06;987.6;;;32.4;26
79000;BME280;68406;53.914;27.416;2023-06-22T10:02:44;987.6;;;32.2;25.5
79000;BME280;68406;53.914;27.416;2023-06-22T10:07:16;987.7;;;32.2;26.3
79000;BME280;68406;53.914;27.416;2023-06-22T10:12:28;987.5;;;32.2;26.6
79000;BME280;68406;53.914;27.416;2023-06-22T10:17:40;987.6;;;32.2;26.3
79000;BME280;68406;53.914;27.416;2023-06-22T10:21:58;987.5;;;32.3;26.4
79000;BME280;68406;53.914;27.416;2023-06-22T10:27:08;987.5;;;32.6;26.1
79000;BME280;68406;53.914;27.416;2023-06-22T10:32:48;987.6;;;32.3;25.8
79000;BME280;68406;53.914;27.416;2023-06-22T10:37:46;987.5;;;32.1;25.9
79000;BME280;68406;53.914;27.416;2023-06-22T10:42:32;987.4;;;32.7;25
79000;BME280;68406;53.914;27.416;2023-06-22T10:47:46;987.4;;;34.3;24.2
79000;BME280;68406;53.914;27.416;2023-06-22T10:52:44;987.3;;;36.2;22.8
79000;BME280;68406;53.914;27.416;2023-06-22T10:56:56;987.2;;;37.5;21.1
79000;BME280;68406;53.914;27.416;2023-06-22T11:02:20;987.1;;;39;19.7
79000;BME280;68406;53.914;27.416;2023-06-22T11:07:44;987.1;;;40.3;18
79000;BME280;68406;53.914;27.416;2023-06-22T11:12:42;987.2;;;40.1;17.1
79000;BME280;68406;53.914;27.416;2023-06-22T11:17:32;987.1;;;38.7;18
79000;BME280;68406;53.914;27.416;2023-06-22T11:22:34;987.2;;;36.9;19.7
79000;BME280;68406;53.914;27.416;2023-06-22T11:27:44;987.3;;;34.7;21.9
79000;BME280;68406;53.914;27.416;2023-06-22T11:32:05;987.6;;;32.3;27.6
79000;BME280;68406;53.914;27.416;2023-06-22T11:37:06;987.6;;;29.9;32.9
79000;BME280;68406;53.914;27.416;2023-06-22T11:42:42;987.8;;;28.2;37.3
79000;BME280;68406;53.914;27.416;2023-06-22T11:47:29;988;;;26.9;40.7
79000;BME280;68406;53.914;27.416;2023-06-22T11:52:28;988;;;25.9;44.4
79000;BME280;68406;53.914;27.416;2023-06-22T11:57:53;987.8;;;25.5;45.3
79000;BME280;68406;53.914;27.416;2023-06-22T12:02:06;987.9;;;25;47.3
79000;BME280;68406;53.914;27.416;2023-06-22T12:07:04;987.8;;;23.9;51.8
79000;BME280;68406;53.914;27.416;2023-06-22T12:12:31;987.8;;;22.4;58.4
79000;BME280;68406;53.914;27.416;2023-06-22T12:17:18;987.7;;;22.2;59.8
79000;BME280;68406;53.914;27.416;2023-06-22T12:22:13;987.7;;;22.5;59.6
79000;BME280;68406;53.914;27.416;2023-06-22T12:27:16;987.7;;;22.8;60
79000;BME280;68406;53.914;27.416;2023-06-22T12:32:42;987.9;;;23.1;59.9
79000;BME280;68406;53.914;27.416;2023-06-22T12:36:56;987.8;;;23.1;60.2
79000;BME280;68406;53.914;27.416;2023-06-22T12:41:58;987.7;;;23;61
79000;BME280;68406;53.914;27.416;2023-06-22T12:47:46;987.6;;;23;61.1
79000;BME280;68406;53.914;27.416;2023-06-22T12:52:30;987.7;;;23.2;61.2
79000;BME280;68406;53.914;27.416;2023-06-22T12:56:58;987.6;;;23.7;60.8
79000;BME280;68406;53.914;27.416;2023-06-22T13:02:18;987.5;;;24.1;61
79000;BME280;68406;53.914;27.416;2023-06-22T13:07:22;987.5;;;24.3;59.9
79000;BME280;68406;53.914;27.416;2023-06-22T13:11:59;987.4;;;24.5;58.6
79000;BME280;68406;53.914;27.416;2023-06-22T13:17:22;987.4;;;24.6;57.5
79000;BME280;68406;53.914;27.416;2023-06-22T13:22:46;987.4;;;24.7;57
79000;BME280;68406;53.914;27.416;2023-06-22T13:27:44;987.4;;;24.8;56.5
79000;BME280;68406;53.914;27.416;2023-06-22T13:32:16;987.4;;;24.8;56
79000;BME280;68406;53.914;27.416;2023-06-22T13:37:10;987.3;;;24.8;55.7
79000;BME280;68406;53.914;27.416;2023-06-22T13:41:58;987.3;;;24.6;55.3
79000;BME280;68406;53.914;27.416;2023-06-22T13:46:56;987.2;;;24.4;55.1
79000;BME280;68406;53.914;27.416;2023-06-22T13:52:20;987.2;;;24.2;55.2
79000;BME280;68406;53.914;27.416;2023-06-22T13:57:32;987.2;;;24.2;54.6
79000;BME280;68406;53.914;27.416;2023-06-22T14:02:30;987.1;;;24.4;54.1
79000;BME280;68406;53.914;27.416;2023-06-22T14:07:26;987;;;24.9;53
79000;BME280;68406;53.914;27.416;2023-06-22T14:12:16;986.9;;;25.8;50.6
79000;BME280;68406;53.914;27.416;2023-06-22T14:16:56;986.9;;;26.4;48.8
79000;BME280;68406;53.914;27.416;2023-06-22T14:21:56;986.8;;;27.1;46.5
79000;BME280;68406;53.914;27.416;2023-06-22T14:27:44;986.7;;;28.3;42.9
79000;BME280;68406;53.914;27.416;2023-06-22T14:31:56;986.6;;;29.1;39.3
79000;BME280;68406;53.914;27.416;2023-06-22T14:37:30;986.6;;;28.9;37.8
79000;BME280;68406;53.914;27.416;2023-06-22T14:42:46;986.6;;;28.8;37.4
79000;BME280;68406;53.914;27.416;2023-06-22T14:47:34;986.5;;;28.8;37.4
79000;BME280;68406;53.914;27.416;2023-06-22T14:52:10;986.5;;;29;37.4
79000;BME280;68406;53.914;27.416;2023-06-22T14:57:36;986.4;;;29.5;37.1
79000;BME280;68406;53.914;27.416;2023-06-22T15:02:44;986.3;;;30;36.6
79000;BME280;68406;53.914;27.416;2023-06-22T15:07:46;986.3;;;30.4;35.9
79000;BME280;68406;53.914;27.416;2023-06-22T15:12:46;986.3;;;31.6;34.1
79000;BME280;68406;53.914;27.416;2023-06-22T15:17:46;986.3;;;32.4;32.8
79000;BME280;68406;53.914;27.416;2023-06-22T15:22:14;986.2;;;34.9;29.3
79000;BME280;68406;53.914;27.416;2023-06-22T15:26:58;986.2;;;33.7;30.3
79000;BME280;68406;53.914;27.416;2023-06-22T15:32:32;986.2;;;34.1;29.8
79000;BME280;68406;53.914;27.416;2023-06-22T15:37:45;986.2;;;35;28.4
79000;BME280;68406;53.914;27.416;2023-06-22T15:42:20;986.1;;;37.3;25.5
79000;BME280;68406;53.914;27.416;2023-06-22T15:47:32;986;;;38.5;24.5
79000;BME280;68406;53.914;27.416;2023-06-22T15:52:28;986;;;36.3;27
79000;BME280;68406;53.914;27.416;2023-06-22T15:56:58;986;;;34.7;27.7
79000;BME280;68406;53.914;27.416;2023-06-22T16:02:06;985.9;;;35.4;26
79000;BME280;68406;53.914;27.416;2023-06-22T16:07:22;985.9;;;36.7;24.6
79000;BME280;68406;53.914;27.416;2023-06-22T16:12:46;985.9;;;35.7;26.2
79000;BME280;68406;53.914;27.416;2023-06-22T16:17:32;985.9;;;35.4;26.2
79000;BME280;68406;53.914;27.416;2023-06-22T16:22:44;985.9;;;36.5;24.8
79000;BME280;68406;53.914;27.416;2023-06-22T16:26:58;985.9;;;36.5;24.7
79000;BME280;68406;53.914;27.416;2023-06-22T16:32:10;985.9;;;36.7;24.7
79000;BME280;68406;53.914;27.416;2023-06-22T16:37:30;985.9;;;34.9;27.1
79000;BME280;68406;53.914;27.416;2023-06-22T16:42:22;985.9;;;32.5;31.7
79000;BME280;68406;53.914;27.416;2023-06-22T16:47:16;985.9;;;30.8;34.9
79000;BME280;68406;53.914;27.416;2023-06-22T16:52:20;985.9;;;29.4;37.2
79000;BME280;68406;53.914;27.416;2023-06-22T16:57:46;986;;;27.4;40.9
79000;BME280;68406;53.914;27.416;2023-06-22T17:02:22;986;;;26.6;43.5
79000;BME280;68406;53.914;27.416;2023-06-22T17:07:11;986;;;26.2;45
79000;BME280;68406;53.914;27.416;2023-06-22T17:12:32;985.9;;;26;46.1
79000;BME280;68406;53.914;27.416;2023-06-22T17:17:08;985.9;;;25.9;47
79000;BME280;68406;53.914;27.416;2023-06-22T17:22:14;985.9;;;25.7;47.6
79000;BME280;68406;53.914;27.416;2023-06-22T17:27:08;985.8;;;25.6;48.3
79000;BME280;68406;53.914;27.416;2023-06-22T17:32:30;985.8;;;25.4;49
79000;BME280;68406;53.914;27.416;2023-06-22T17:37:12;985.8;;;25.3;49.5
79000;BME280;68406;53.914;27.416;2023-06-22T17:41:58;985.8;;;25.1;50.3
79000;BME280;68406;53.914;27.416;2023-06-22T17:47:45;985.8;;;24.9;51.1
79000;BME280;68406;53.914;27.416;2023-06-22T17:52:30;985.8;;;24.8;51.9
79000;BME280;68406;53.914;27.416;2023-06-22T17:57:17;985.8;;;24.6;52.4
79000;BME280;68406;53.914;27.416;2023-06-22T18:02:36;985.8;;;24.5;53
79000;BME280;68406;53.914;27.416;2023-06-22T18:07:18;985.8;;;24.4;53.6
79000;BME280;68406;53.914;27.416;2023-06-22T18:11:58;985.7;;;24.3;54
79000;BME280;68406;53.914;27.416;2023-06-22T18:16:58;985.7;;;24.3;54.6
79000;BME280;68406;53.914;27.416;2023-06-22T18:22:34;985.7;;;24.2;55.1
79000;BME280;68406;53.914;27.416;2023-06-22T18:27:28;985.8;;;24.2;55.8
79000;BME280;68406;53.914;27.416;2023-06-22T18:32:29;985.8;;;24.1;56.2
79000;BME280;68406;53.914;27.416;2023-06-22T18:37:19;985.9;;;24;56.8
79000;BME280;68406;53.914;27.416;2023-06-22T18:42:20;985.9;;;23.8;57.5
79000;BME280;68406;53.914;27.416;2023-06-22T18:47:07;985.9;;;23.6;58.4
79000;BME280;68406;53.914;27.416;2023-06-22T18:52:23;985.9;;;23.5;59.2
79000;BME280;68406;53.914;27.416;2023-06-22T18:57:12;985.9;;;23.3;60.1
79000;BME280;68406;53.914;27.416;2023-06-22T19:02:44;985.9;;;23.1;60.8
79000;BME280;68406;53.914;27.416;2023-06-22T19:08:10;986;;;23;61.5
79000;BME280;68406;53.914;27.416;2023-06-22T19:12:33;986.1;;;22.9;61.9
79000;BME280;68406;53.914;27.416;2023-06-22T19:17:11;986.1;;;22.8;62.6
79000;BME280;68406;53.914;27.416;2023-06-22T19:23:04;986.1;;;22.7;63.5
79000;BME280;68406;53.914;27.416;2023-06-22T19:27:41;986.2;;;22.7;63.8
79000;BME280;68406;53.914;27.416;2023-06-22T19:32:41;986.1;;;22.6;64.5
79000;BME280;68406;53.914;27.416;2023-06-22T19:37:41;986.2;;;22.5;65.2
79000;BME280;68406;53.914;27.416;2023-06-22T19:42:41;986.2;;;22.4;65.6
79000;BME280;68406;53.914;27.416;2023-06-22T19:47:07;986.2;;;22.4;66
79000;BME280;68406;53.914;27.416;2023-06-22T19:52:07;986.2;;;22.3;66.5
79000;BME280;68406;53.914;27.416;2023-06-22T19:57:33;986.2;;;22.2;67.3
79000;BME280;68406;53.914;27.416;2023-06-22T20:02:41;986.2;;;22.1;67.5
79000;BME280;68406;53.914;27.416;2023-06-22T20:07:17;986.1;;;22;67.8
79000;BME280;68406;53.914;27.416;2023-06-22T20:12:33;986.1;;;22;68.1
79000;BME280;68406;53.914;27.416;2023-06-22T20:17:41;986.1;;;21.9;68.2
79000;BME280;68406;53.914;27.416;2023-06-22T20:22:21;986.1;;;21.8;68.6
79000;BME280;68406;53.914;27.416;2023-06-22T20:27:09;986.1;;;21.7;69.1
79000;BME280;68406;53.914;27.416;2023-06-22T20:32:19;986.1;;;21.6;69.6
79000;BME280;68406;53.914;27.416;2023-06-22T20:37:35;986.1;;;21.5;69.9
79000;BME280;68406;53.914;27.416;2023-06-22T20:42:29;986;;;21.4;70.3
79000;BME280;68406;53.914;27.416;2023-06-22T20:47:41;986;;;21.3;70.9
79000;BME280;68406;53.914;27.416;2023-06-22T20:52:43;986;;;21.3;71
79000;BME280;68406;53.914;27.416;2023-06-22T20:57:05;986;;;21.2;71.3
79000;BME280;68406;53.914;27.416;2023-06-22T21:02:29;986;;;21.1;71.3
79000;BME280;68406;53.914;27.416;2023-06-22T21:06:59;986;;;21;71.5
79000;BME280;68406;53.914;27.416;2023-06-22T21:11:59;986.1;;;20.9;71.9
79000;BME280;68406;53.914;27.416;2023-06-22T21:17:07;986.1;;;20.8;72.2
79000;BME280;68406;53.914;27.416;2023-06-22T21:22:43;986.2;;;20.7;72.1
79000;BME280;68406;53.914;27.416;2023-06-22T21:26:59;986.2;;;20.6;72.2
79000;BME280;68406;53.914;27.416;2023-06-22T21:31:59;986.1;;;20.5;72.2
79000;BME280;68406;53.914;27.416;2023-06-22T21:37:43;986.1;;;20.5;72
79000;BME280;68406;53.914;27.416;2023-06-22T21:42:27;986;;;20.5;72.1
79000;BME280;68406;53.914;27.416;2023-06-22T21:46:59;986.1;;;20.4;71.9
79000;BME280;68406;53.914;27.416;2023-06-22T21:51:59;986.1;;;20.3;71.9
79000;BME280;68406;53.914;27.416;2023-06-22T21:57:29;986.1;;;20.3;71.8
79000;BME280;68406;53.914;27.416;2023-06-22T22:02:17;986.1;;;20.2;72
79000;BME280;68406;53.914;27.416;2023-06-22T22:07:07;986.1;;;20.2;71.8
79000;BME280;68406;53.914;27.416;2023-06-22T22:12:43;986.1;;;20.2;71.5
79000;BME280;68406;53.914;27.416;2023-06-22T22:17:29;986.1;;;20.2;71.3
79000;BME280;68406;53.914;27.416;2023-06-22T22:22:13;986.1;;;20.2;71.3
79000;BME280;68406;53.914;27.416;2023-06-22T22:27:17;986.1;;;20.1;71.3
79000;BME280;68406;53.914;27.416;2023-06-22T22:32:17;986.1;;;20;71.5
79000;BME280;68406;53.914;27.416;2023-06-22T22:36:57;986;;;19.9;71.7
79000;BME280;68406;53.914;27.416;2023-06-22T22:42:07;985.8;;;19.9;71.7
79000;BME280;68406;53.914;27.416;2023-06-22T22:47:33;985.8;;;19.8;71.9
79000;BME280;68406;53.914;27.416;2023-06-22T22:52:21;985.8;;;19.7;72
79000;BME280;68406;53.914;27.416;2023-06-22T22:57:29;985.8;;;19.6;72.4
79000;BME280;68406;53.914;27.416;2023-06-22T23:02:19;985.9;;;19.6;72.5
79000;BME280;68406;53.914;27.416;2023-06-22T23:06:59;985.9;;;19.5;72.7
79000;BME280;68406;53.914;27.416;2023-06-22T23:11:57;985.9;;;19.4;72.7
79000;BME280;68406;53.914;27.416;2023-06-22T23:17:41;986;;;19.3;73.1
79000;BME280;68406;53.914;27.416;2023-06-22T23:22:15;985.9;;;19.2;73.2
79000;BME280;68406;53.914;27.416;2023-06-22T23:27:19;985.9;;;19.1;73.5
79000;BME280;68406;53.914;27.416;2023-06-22T23:32:41;985.8;;;19.1;73.7
79000;BME280;68406;53.914;27.416;2023-06-22T23:37:31;985.9;;;19;74.1
79000;BME280;68406;53.914;27.416;2023-06-22T23:42:15;985.8;;;18.9;74.1
79000;BME280;68406;53.914;27.416;2023-06-22T23:47:33;985.8;;;18.8;74
79000;BME280;68406;53.914;27.416;2023-06-22T23:52:41;985.8;;;18.7;73.9
79000;BME280;68406;53.914;27.416;2023-06-22T23:57:41;985.7;;;18.6;73.9
